createdAt,value
2019-04-22T00:00:55.979Z,6.30
2019-04-22T00:03:36.098Z,6.37
2019-04-22T00:06:14.915Z,6.00
2019-04-22T00:08:49.159Z,6.00
2019-04-22T00:11:27.258Z,6.10
2019-04-22T00:14:00.685Z,6.03
2019-04-22T00:16:27.525Z,6.40
2019-04-22T00:21:25.768Z,6.27
2019-04-22T00:23:51.762Z,6.40
2019-04-22T00:26:26.070Z,6.10
2019-04-22T00:31:40.501Z,6.37
2019-04-22T00:34:11.141Z,6.33
2019-04-22T00:36:41.699Z,6.10
2019-04-22T00:39:16.393Z,6.37
2019-04-22T00:41:43.817Z,6.03
2019-04-22T00:44:15.374Z,6.63
2019-04-22T00:46:45.974Z,7.08
2019-04-22T00:50:01.592Z,6.85
2019-04-22T00:54:17.047Z,6.70
2019-04-22T00:56:42.319Z,6.70
2019-04-22T00:59:12.760Z,6.00
2019-04-22T01:01:47.085Z,6.40
2019-04-22T01:04:23.035Z,7.00
2019-04-22T01:06:41.628Z,5.80
2019-04-22T01:09:10.796Z,6.87
2019-04-22T01:11:37.781Z,6.30
2019-04-22T01:14:16.027Z,6.40
2019-04-22T01:16:43.111Z,6.58
2019-04-22T01:19:16.630Z,6.20
2019-04-22T01:24:12.121Z,6.73
2019-04-22T01:26:41.783Z,6.22
2019-04-22T01:29:09.447Z,6.90
2019-04-22T01:31:30.852Z,6.40
2019-04-22T01:34:11.409Z,6.70
2019-04-22T01:36:52.812Z,7.03
2019-04-22T01:39:21.530Z,6.70
2019-04-22T01:44:34.461Z,6.67
2019-04-22T01:47:00.050Z,7.20
2019-04-22T01:49:27.313Z,6.87
2019-04-22T01:52:11.434Z,6.80
2019-04-22T01:54:35.676Z,6.27
2019-04-22T01:56:57.117Z,7.17
2019-04-22T01:59:20.697Z,6.23
2019-04-22T02:01:57.412Z,6.47
2019-04-22T02:04:35.079Z,6.13
2019-04-22T02:07:01.929Z,6.90
2019-04-22T02:09:38.384Z,6.60
2019-04-22T02:12:00.212Z,6.60
2019-04-22T02:14:34.075Z,6.23
2019-04-22T02:17:01.327Z,6.70
2019-04-22T02:22:04.553Z,6.33
2019-04-22T02:24:35.266Z,6.80
2019-04-22T02:27:09.250Z,5.93
2019-04-22T02:29:34.732Z,6.43
2019-04-22T02:32:10.624Z,6.87
2019-04-22T02:34:40.190Z,6.80
2019-04-22T02:37:04.899Z,6.30
2019-04-22T02:42:10.656Z,6.57
2019-04-22T02:44:35.851Z,6.70
2019-04-22T02:47:20.560Z,6.70
2019-04-22T02:49:37.477Z,6.73
2019-04-22T02:52:09.394Z,6.80
2019-04-22T02:54:50.998Z,6.53
2019-04-22T02:57:14.055Z,7.20
2019-04-22T02:59:39.307Z,6.43
2019-04-22T03:02:14.418Z,7.20
2019-04-22T03:04:37.227Z,7.00
2019-04-22T03:07:05.538Z,7.10
2019-04-22T03:09:41.069Z,7.50
2019-04-22T03:14:46.019Z,7.13
2019-04-22T03:17:17.705Z,7.40
2019-04-22T03:19:59.266Z,7.20
2019-04-22T03:22:18.632Z,7.33
2019-04-22T03:25:25.746Z,7.50
2019-04-22T03:27:10.645Z,7.50
2019-04-22T03:37:49.446Z,7.20
2019-04-22T03:42:52.493Z,7.42
2019-04-22T03:45:19.258Z,7.17
2019-04-22T03:47:43.581Z,7.17
2019-04-22T03:50:25.239Z,7.10
2019-04-22T03:52:43.065Z,6.57
2019-04-22T03:57:49.676Z,6.72
2019-04-22T04:00:17.836Z,7.10
2019-04-22T04:02:45.825Z,7.50
2019-04-22T04:05:29.644Z,7.23
2019-04-22T04:12:51.182Z,7.67
2019-04-22T04:30:29.062Z,8.00
2019-04-22T04:35:28.242Z,7.00
2019-04-22T04:37:55.166Z,7.40
2019-04-22T04:40:20.757Z,7.03
2019-04-22T04:42:46.021Z,7.17
2019-04-22T04:50:18.263Z,7.17
2019-04-22T04:55:25.840Z,7.30
2019-04-22T04:58:01.047Z,7.00
2019-04-22T05:05:21.113Z,7.17
2019-04-22T05:15:18.387Z,7.20
2019-04-22T05:17:54.985Z,6.90
2019-04-22T05:20:26.943Z,7.60
2019-04-22T05:27:49.181Z,6.50
2019-04-22T05:30:23.565Z,7.33
2019-04-22T05:32:43.035Z,6.97
2019-04-22T05:35:14.334Z,7.00
2019-04-22T05:37:50.008Z,7.00
2019-04-22T05:40:20.260Z,6.93
2019-04-22T05:42:46.155Z,6.83
2019-04-22T05:45:14.880Z,7.33
2019-04-22T05:47:50.935Z,6.80
2019-04-22T05:50:13.189Z,7.37
2019-04-22T05:52:49.809Z,7.17
2019-04-22T05:55:28.507Z,6.97
2019-04-22T05:57:45.669Z,7.10
2019-04-22T06:00:23.122Z,7.30
2019-04-22T06:02:52.963Z,6.30
2019-04-22T06:05:17.155Z,7.10
2019-04-22T06:07:53.809Z,7.40
2019-04-22T06:10:26.315Z,7.30
2019-04-22T06:12:48.020Z,7.33
2019-04-22T06:15:27.158Z,7.50
2019-04-22T06:18:07.670Z,7.40
2019-04-22T06:20:33.846Z,7.30
2019-04-22T06:25:39.370Z,7.40
2019-04-22T06:28:07.154Z,7.27
2019-04-22T06:30:48.963Z,7.30
2019-04-22T06:33:01.138Z,7.87
2019-04-22T06:45:35.353Z,7.83
2019-04-22T06:48:08.032Z,7.87
2019-04-22T06:50:43.440Z,7.60
2019-04-22T06:53:09.003Z,6.93
2019-04-22T06:58:04.888Z,7.63
2019-04-22T07:05:43.406Z,7.13
2019-04-22T07:08:30.357Z,7.40
2019-04-22T07:10:43.435Z,7.80
2019-04-22T07:13:10.992Z,6.90
2019-04-22T07:15:50.362Z,7.00
2019-04-22T07:18:21.210Z,7.47
2019-04-22T07:20:48.087Z,7.13
2019-04-22T07:23:13.766Z,6.73
2019-04-22T07:30:46.062Z,7.20
2019-04-22T07:33:32.478Z,7.00
2019-04-22T07:35:56.133Z,7.10
2019-04-22T07:38:20.578Z,6.47
2019-04-22T07:40:50.357Z,6.20
2019-04-22T07:43:19.900Z,6.47
2019-04-22T07:46:00.676Z,6.70
2019-04-22T07:48:26.479Z,6.90
2019-04-22T07:51:05.550Z,6.00
2019-04-22T07:53:19.302Z,6.80
2019-04-22T07:55:50.826Z,5.97
2019-04-22T07:58:18.729Z,5.97
2019-04-22T08:00:43.784Z,5.90
2019-04-22T08:03:18.372Z,6.10
2019-04-22T08:05:58.547Z,5.80
2019-04-22T08:08:25.809Z,6.40
2019-04-22T08:10:49.957Z,6.30
2019-04-22T08:13:17.236Z,5.70
2019-04-22T08:15:55.321Z,6.07
2019-04-22T08:18:22.178Z,5.33
2019-04-22T08:23:23.754Z,5.80
2019-04-22T08:25:49.258Z,5.73
2019-04-22T08:28:26.303Z,4.67
2019-04-22T08:30:53.586Z,5.87
2019-04-22T08:33:22.115Z,5.40
2019-04-22T08:36:06.066Z,4.70
2019-04-22T08:38:31.298Z,4.70
2019-04-22T08:41:23.009Z,4.62
2019-04-22T08:46:17.077Z,4.60
2019-04-22T08:48:47.834Z,4.80
2019-04-22T08:51:23.412Z,4.30
2019-04-22T08:53:57.418Z,4.27
2019-04-22T08:56:29.479Z,4.80
2019-04-22T08:58:50.717Z,4.70
2019-04-22T09:01:17.733Z,4.10
2019-04-22T09:03:47.040Z,4.33
2019-04-22T09:08:50.194Z,4.50
2019-04-22T09:11:20.177Z,4.40
2019-04-22T09:13:49.850Z,4.20
2019-04-22T09:16:20.711Z,4.33
2019-04-22T09:18:52.731Z,4.58
2019-04-22T09:23:54.016Z,4.30
2019-04-22T09:26:23.945Z,4.00
2019-04-22T09:28:50.960Z,4.60
2019-04-22T09:31:19.544Z,4.10
2019-04-22T09:33:59.327Z,4.50
2019-04-22T09:36:24.356Z,3.90
2019-04-22T09:38:49.231Z,4.20
2019-04-22T09:41:18.711Z,4.17
2019-04-22T09:43:52.350Z,4.10
2019-04-22T09:46:25.004Z,3.60
2019-04-22T09:48:51.863Z,4.27
2019-04-22T09:51:18.942Z,3.90
2019-04-22T09:56:25.821Z,4.27
2019-04-22T09:58:50.801Z,4.00
2019-04-22T10:01:32.112Z,3.90
2019-04-22T10:03:56.488Z,4.23
2019-04-22T10:06:29.327Z,4.30
2019-04-22T10:09:27.187Z,4.20
2019-04-22T10:11:27.920Z,4.03
2019-04-22T10:13:53.714Z,4.20
2019-04-22T10:16:27.100Z,3.90
2019-04-22T10:18:54.463Z,4.00
2019-04-22T10:21:27.262Z,4.00
2019-04-22T10:23:53.267Z,3.90
2019-04-22T10:26:27.868Z,4.53
2019-04-22T10:31:23.824Z,4.03
2019-04-22T10:33:46.498Z,4.07
2019-04-22T10:35:59.362Z,4.13
2019-04-22T10:38:28.399Z,4.40
2019-04-22T10:40:58.363Z,4.20
2019-04-22T10:43:27.575Z,4.47
2019-04-22T10:45:56.149Z,4.07
2019-04-22T10:48:26.104Z,4.20
2019-04-22T10:50:54.832Z,3.53
2019-04-22T10:53:23.819Z,4.07
2019-04-22T10:55:52.376Z,4.47
2019-04-22T10:58:21.057Z,4.50
2019-04-22T11:00:52.255Z,4.20
2019-04-22T11:03:22.327Z,4.17
2019-04-22T11:05:53.788Z,4.20
2019-04-22T11:08:31.975Z,4.15
2019-04-22T11:11:07.160Z,4.10
2019-04-22T11:13:22.224Z,4.00
2019-04-22T11:15:51.038Z,3.67
2019-04-22T11:18:19.932Z,3.73
2019-04-22T11:20:49.534Z,3.73
2019-04-22T11:23:18.699Z,4.00
2019-04-22T11:25:47.988Z,4.17
2019-04-22T11:28:17.807Z,4.10
2019-04-22T11:30:48.119Z,4.13
2019-04-22T11:33:18.291Z,3.60
2019-04-22T11:35:47.959Z,3.97
2019-04-22T11:38:17.251Z,4.15
2019-04-22T11:40:51.734Z,4.13
2019-04-22T11:43:16.438Z,3.70
2019-04-22T11:45:45.155Z,3.80
2019-04-22T11:48:13.662Z,3.97
2019-04-22T11:50:42.199Z,3.83
2019-04-22T11:53:11.096Z,3.73
2019-04-22T11:55:40.610Z,3.83
2019-04-22T11:58:10.589Z,4.10
2019-04-22T12:00:41.008Z,3.60
2019-04-22T12:03:09.624Z,4.13
2019-04-22T12:05:39.622Z,3.90
2019-04-22T12:08:09.263Z,3.90
2019-04-22T12:10:46.890Z,3.87
2019-04-22T12:13:08.127Z,3.80
2019-04-22T12:15:37.303Z,3.63
2019-04-22T12:18:07.048Z,3.50
2019-04-22T12:20:36.859Z,3.73
2019-04-22T12:23:07.399Z,3.47
2019-04-22T12:25:47.915Z,3.60
2019-04-22T12:28:08.981Z,3.57
2019-04-22T12:30:37.494Z,3.50
2019-04-22T12:33:10.273Z,3.70
2019-04-22T12:35:36.984Z,3.70
2019-04-22T12:38:08.628Z,3.80
2019-04-22T12:40:44.726Z,3.70
2019-04-22T12:43:06.672Z,3.70
2019-04-22T12:45:36.345Z,4.17
2019-04-22T12:48:06.252Z,3.90
2019-04-22T12:50:40.240Z,3.50
2019-04-22T12:53:10.614Z,3.80
2019-04-22T12:55:35.654Z,3.70
2019-04-22T12:58:05.324Z,3.40
2019-04-22T13:00:34.434Z,3.30
2019-04-22T13:03:03.120Z,3.60
2019-04-22T13:05:33.291Z,3.40
2019-04-22T13:08:02.080Z,3.30
2019-04-22T13:10:41.683Z,3.57
2019-04-22T13:13:00.950Z,3.47
2019-04-22T13:15:30.715Z,3.27
2019-04-22T13:18:06.129Z,3.43
2019-04-22T13:20:30.433Z,3.50
2019-04-22T13:22:59.059Z,3.43
2019-04-22T13:25:29.962Z,3.43
2019-04-22T13:27:57.738Z,3.40
2019-04-22T13:30:28.280Z,3.70
2019-04-22T13:32:56.893Z,3.80
2019-04-22T13:35:26.169Z,3.50
2019-04-22T13:37:57.233Z,4.00
2019-04-22T13:40:26.517Z,3.57
2019-04-22T13:42:55.599Z,3.47
2019-04-22T13:45:25.549Z,3.67
2019-04-22T13:48:11.194Z,3.77
2019-04-22T13:53:42.966Z,3.80
2019-04-22T13:55:51.365Z,3.63
2019-04-22T13:58:08.249Z,3.63
2019-04-22T14:00:34.230Z,3.90
2019-04-22T14:03:18.264Z,3.97
2019-04-22T14:05:48.823Z,3.83
2019-04-22T14:08:18.457Z,3.90
2019-04-22T14:10:48.417Z,4.00
2019-04-22T14:13:16.993Z,4.20
2019-04-22T14:15:46.590Z,4.42
2019-04-22T14:18:15.185Z,4.17
2019-04-22T14:20:44.968Z,4.00
2019-04-22T14:23:14.305Z,3.67
2019-04-22T14:25:43.787Z,4.08
2019-04-22T14:28:17.369Z,3.87
2019-04-22T14:30:42.634Z,4.15
2019-04-22T14:33:12.160Z,4.45
2019-04-22T14:35:41.597Z,3.70
2019-04-22T14:38:10.199Z,3.40
2019-04-22T14:40:40.921Z,3.87
2019-04-22T14:43:31.723Z,4.30
2019-04-22T14:46:12.318Z,3.83
2019-04-22T14:48:37.340Z,3.47
2019-04-22T14:50:56.288Z,3.75
2019-04-22T14:53:32.314Z,3.90
2019-04-22T14:55:40.371Z,3.85
2019-04-22T14:58:09.111Z,3.80
2019-04-22T15:00:38.184Z,3.80
2019-04-22T15:03:08.187Z,3.70
2019-04-22T15:05:37.309Z,3.43
2019-04-22T15:08:07.071Z,3.20
2019-04-22T15:10:36.064Z,3.40
2019-04-22T15:13:05.457Z,3.10
2019-04-22T15:15:46.960Z,3.13
2019-04-22T15:18:17.545Z,3.30
2019-04-22T15:20:51.004Z,3.20
2019-04-22T15:23:17.948Z,3.20
2019-04-22T15:25:46.475Z,3.20
2019-04-22T15:28:15.395Z,3.40
2019-04-22T15:30:43.965Z,3.30
2019-04-22T15:33:12.562Z,3.30
2019-04-22T15:35:41.143Z,3.20
2019-04-22T15:38:11.141Z,3.10
2019-04-22T15:40:40.691Z,3.20
2019-04-22T15:43:10.841Z,3.17
2019-04-22T15:45:41.108Z,3.20
2019-04-22T15:48:10.274Z,2.90
2019-04-22T15:50:40.538Z,3.00
2019-04-22T15:53:09.764Z,2.87
2019-04-22T15:55:38.970Z,2.93
2019-04-22T15:58:08.066Z,2.60
2019-04-22T16:00:49.077Z,3.03
2019-04-22T16:03:09.121Z,2.50
2019-04-22T16:05:36.950Z,2.80
2019-04-22T16:08:06.693Z,2.80
2019-04-22T16:10:35.799Z,3.30
2019-04-22T16:13:12.548Z,2.93
2019-04-22T16:15:34.531Z,2.60
2019-04-22T16:18:04.796Z,3.10
2019-04-22T16:20:34.349Z,2.90
2019-04-22T16:23:10.453Z,2.70
2019-04-22T16:25:59.148Z,3.77
2019-04-22T16:28:29.116Z,3.07
2019-04-22T16:30:59.479Z,3.00
2019-04-22T16:33:28.226Z,3.00
2019-04-22T16:35:56.659Z,3.53
2019-04-22T16:38:25.094Z,3.15
2019-04-22T16:40:54.728Z,3.27
2019-04-22T16:43:24.609Z,3.23
2019-04-22T16:45:53.764Z,3.10
2019-04-22T16:48:22.747Z,3.17
2019-04-22T16:50:52.681Z,3.23
2019-04-22T16:53:23.204Z,2.97
2019-04-22T16:55:52.860Z,3.10
2019-04-22T16:58:22.980Z,3.13
2019-04-22T17:00:52.517Z,2.53
2019-04-22T17:03:40.575Z,3.10
2019-04-22T17:06:21.445Z,3.33
2019-04-22T17:08:50.907Z,3.30
2019-04-22T17:11:20.207Z,3.10
2019-04-22T17:13:50.180Z,3.10
2019-04-22T17:16:20.083Z,3.33
2019-04-22T17:18:49.952Z,3.30
2019-04-22T17:21:19.653Z,3.07
2019-04-22T17:23:49.665Z,3.50
2019-04-22T17:26:18.830Z,3.60
2019-04-22T17:28:47.420Z,3.17
2019-04-22T17:31:16.429Z,2.80
2019-04-22T17:33:45.011Z,3.30
2019-04-22T17:36:14.016Z,3.62
2019-04-22T17:38:50.857Z,2.93
2019-04-22T17:41:24.381Z,3.40
2019-04-22T17:44:15.277Z,3.07
2019-04-22T17:46:33.648Z,3.40
2019-04-22T17:49:12.277Z,11.90
2019-04-22T17:51:37.381Z,4.73
2019-04-22T17:54:09.448Z,3.70
2019-04-22T17:56:37.534Z,4.55
2019-04-22T17:59:10.221Z,4.63
2019-04-22T18:01:39.741Z,4.22
2019-04-22T18:03:56.921Z,2.83
2019-04-22T18:06:48.883Z,3.10
2019-04-22T18:09:12.387Z,3.50
2019-04-22T18:11:56.285Z,2.90
2019-04-22T18:14:30.053Z,3.00
2019-04-22T18:16:41.352Z,2.90
2019-04-22T18:19:11.587Z,3.20
2019-04-22T18:21:36.440Z,3.10
2019-04-22T18:24:01.392Z,3.20
2019-04-22T18:26:40.169Z,2.87
2019-04-22T18:29:11.515Z,2.97
2019-04-22T18:31:35.614Z,2.90
2019-04-22T18:34:08.797Z,3.00
2019-04-22T18:36:37.213Z,2.95
2019-04-22T18:39:20.650Z,2.90
2019-04-22T18:41:46.720Z,2.90
2019-04-22T18:44:17.956Z,2.87
2019-04-22T18:46:42.071Z,2.80
2019-04-22T18:49:10.953Z,2.80
2019-04-22T18:52:02.890Z,3.23
2019-04-22T18:54:31.045Z,2.60
2019-04-22T18:56:59.181Z,3.23
2019-04-22T18:59:19.501Z,2.90
2019-04-22T19:01:42.010Z,2.70
2019-04-22T19:04:18.886Z,2.83
2019-04-22T19:06:58.899Z,2.83
2019-04-22T19:09:36.174Z,2.98
2019-04-22T19:12:16.550Z,5.17
2019-04-22T19:14:43.719Z,2.97
2019-04-22T19:17:11.922Z,3.17
2019-04-22T19:22:03.976Z,2.60
2019-04-22T19:24:32.340Z,3.10
2019-04-22T19:27:02.292Z,2.80
2019-04-22T19:29:39.236Z,2.70
2019-04-22T19:32:04.055Z,3.23
2019-04-22T19:34:32.267Z,2.87
2019-04-22T19:37:11.102Z,2.63
2019-04-22T19:39:34.136Z,3.00
2019-04-22T19:42:14.958Z,3.10
2019-04-22T19:44:41.139Z,2.70
2019-04-22T19:49:48.118Z,3.10
2019-04-22T19:52:10.901Z,2.97
2019-04-22T19:54:40.876Z,2.60
2019-04-22T19:57:07.018Z,2.70
2019-04-22T19:59:36.380Z,2.70
2019-04-22T20:02:24.960Z,2.77
2019-04-22T20:05:01.815Z,2.63
2019-04-22T20:07:27.783Z,2.40
2019-04-22T20:10:00.157Z,2.73
2019-04-22T20:12:24.717Z,2.80
2019-04-22T20:14:55.706Z,2.83
2019-04-22T20:17:41.508Z,3.00
2019-04-22T20:20:06.371Z,3.13
2019-04-22T20:22:30.245Z,2.60
2019-04-22T20:24:51.320Z,2.67
2019-04-22T20:27:30.291Z,2.70
2019-04-22T20:30:04.718Z,2.80
2019-04-22T20:32:32.591Z,2.50
2019-04-22T20:35:02.703Z,2.83
2019-04-22T20:37:37.102Z,2.50
2019-04-22T20:40:00.843Z,2.83
2019-04-22T20:45:05.408Z,2.83
2019-04-22T20:47:29.172Z,2.53
2019-04-22T20:50:05.477Z,2.70
2019-04-22T20:52:38.689Z,2.60
2019-04-22T20:54:58.677Z,2.53
2019-04-22T20:57:34.631Z,2.57
2019-04-22T20:59:55.863Z,2.70
2019-04-22T21:02:29.071Z,2.50
2019-04-22T21:04:52.045Z,2.53
2019-04-22T21:07:26.724Z,2.60
2019-04-22T21:10:01.222Z,2.57
2019-04-22T21:12:24.940Z,2.50
2019-04-22T21:15:06.811Z,2.30
2019-04-22T21:17:34.899Z,2.40
2019-04-22T21:20:10.088Z,2.50
2019-04-22T21:22:33.849Z,2.30
2019-04-22T21:25:02.173Z,2.57
2019-04-22T21:27:40.808Z,2.20
2019-04-22T21:29:58.237Z,2.47
2019-04-22T21:32:34.518Z,2.40
2019-04-22T21:35:15.264Z,2.53
2019-04-22T21:40:10.702Z,2.40
2019-04-22T21:42:46.027Z,2.30
2019-04-22T21:45:04.739Z,2.40
2019-04-22T21:47:45.927Z,2.60
2019-04-22T21:50:31.009Z,2.53
2019-04-22T21:52:42.560Z,2.43
2019-04-22T21:55:10.191Z,2.27
2019-04-22T21:58:02.618Z,2.50
2019-04-22T22:03:11.328Z,2.23
2019-04-22T22:05:29.713Z,2.40
2019-04-22T22:07:55.864Z,2.17
2019-04-22T22:10:43.354Z,2.43
2019-04-22T22:13:06.298Z,2.70
2019-04-22T22:15:37.696Z,2.73
2019-04-22T22:18:02.280Z,2.47
2019-04-22T22:20:40.543Z,2.30
2019-04-22T22:23:16.100Z,2.20
2019-04-22T22:25:33.633Z,2.20
2019-04-22T22:28:29.410Z,2.10
2019-04-22T22:30:48.473Z,2.40
2019-04-22T22:33:10.496Z,2.30
2019-04-22T22:35:38.285Z,2.00
2019-04-22T22:38:11.975Z,2.00
2019-04-22T22:40:26.361Z,2.02
2019-04-22T22:42:53.471Z,1.80
2019-04-22T22:45:32.748Z,2.00
2019-04-22T22:48:18.858Z,2.20
2019-04-22T22:50:43.129Z,1.90
2019-04-22T22:53:25.599Z,2.10
2019-04-22T22:55:40.550Z,2.00
2019-04-22T22:58:17.704Z,2.10
2019-04-22T23:00:39.456Z,2.03
2019-04-22T23:05:54.985Z,1.93
2019-04-22T23:08:22.708Z,2.00
2019-04-22T23:10:55.609Z,1.85
2019-04-22T23:13:22.106Z,2.13
2019-04-22T23:15:40.510Z,2.20
2019-04-22T23:17:56.176Z,1.97
2019-04-22T23:20:31.024Z,3.70
2019-04-22T23:23:17.277Z,2.00
2019-04-22T23:26:03.857Z,2.03
2019-04-22T23:28:44.581Z,1.93
2019-04-22T23:31:14.372Z,2.10
2019-04-22T23:34:04.254Z,1.97
2019-04-22T23:36:38.370Z,1.90
2019-04-22T23:39:17.155Z,2.00
2019-04-22T23:41:51.129Z,1.90
2019-04-22T23:44:13.485Z,2.00
2019-04-22T23:46:41.183Z,1.95
2019-04-22T23:49:11.843Z,2.23
2019-04-22T23:51:57.568Z,2.10
2019-04-22T23:54:18.737Z,2.03
2019-04-22T23:56:43.456Z,2.30
2019-04-22T23:59:38.673Z,1.87
